createdAt,value
2023-02-07T00:01:13.566Z,18.70
2023-02-07T00:02:15.942Z,18.80
2023-02-07T00:03:18.336Z,18.70
2023-02-07T00:04:20.659Z,18.80
2023-02-07T00:05:23.481Z,18.80
2023-02-07T00:06:29.180Z,18.80
2023-02-07T00:07:31.877Z,18.80
2023-02-07T00:08:34.282Z,18.90
2023-02-07T00:09:37.544Z,18.90
2023-02-07T00:10:39.818Z,18.90
2023-02-07T00:11:42.146Z,18.90
2023-02-07T00:12:44.408Z,18.90
2023-02-07T00:13:49.133Z,18.90
2023-02-07T00:14:51.456Z,18.90
2023-02-07T00:15:53.744Z,18.90
2023-02-07T00:16:56.128Z,18.90
2023-02-07T00:17:58.514Z,18.90
2023-02-07T00:19:01.055Z,19.00
2023-02-07T00:20:04.231Z,19.00
2023-02-07T00:21:09.523Z,18.90
2023-02-07T00:22:11.995Z,18.90
2023-02-07T00:23:14.227Z,18.90
2023-02-07T00:24:16.475Z,18.90
2023-02-07T00:25:18.790Z,18.90
2023-02-07T00:26:23.963Z,18.90
2023-02-07T00:27:26.864Z,18.90
2023-02-07T00:28:29.717Z,18.90
2023-02-07T00:29:32.724Z,18.90
2023-02-07T00:30:35.142Z,18.90
2023-02-07T00:31:40.335Z,18.90
2023-02-07T00:32:42.963Z,18.90
2023-02-07T00:33:47.013Z,18.90
2023-02-07T00:34:50.581Z,18.90
2023-02-07T00:36:00.828Z,18.90
2023-02-07T00:37:06.606Z,18.90
2023-02-07T00:38:09.302Z,18.90
2023-02-07T00:39:15.104Z,18.90
2023-02-07T00:40:18.622Z,18.90
2023-02-07T00:41:21.031Z,18.90
2023-02-07T00:42:23.503Z,18.90
2023-02-07T00:43:29.944Z,18.90
2023-02-07T00:44:33.103Z,18.90
2023-02-07T00:45:35.645Z,18.90
2023-02-07T00:46:38.950Z,18.80
2023-02-07T00:47:41.553Z,18.90
2023-02-07T00:48:44.560Z,18.80
2023-02-07T00:49:46.987Z,18.80
2023-02-07T00:50:49.351Z,18.90
2023-02-07T00:51:51.862Z,18.90
2023-02-07T00:52:55.657Z,18.90
2023-02-07T00:53:59.628Z,18.90
2023-02-07T00:55:02.111Z,18.90
2023-02-07T00:56:04.495Z,18.80
2023-02-07T00:57:06.769Z,18.80
2023-02-07T00:58:09.091Z,18.80
2023-02-07T00:59:11.440Z,18.80
2023-02-07T01:00:14.402Z,18.80
2023-02-07T01:01:17.472Z,18.80
2023-02-07T01:02:19.856Z,18.80
2023-02-07T01:03:22.484Z,18.80
2023-02-07T01:04:25.654Z,18.70
2023-02-07T01:05:28.043Z,18.70
2023-02-07T01:06:33.659Z,18.80
2023-02-07T01:07:36.432Z,18.80
2023-02-07T01:08:38.983Z,18.70
2023-02-07T01:09:41.503Z,18.80
2023-02-07T01:10:45.421Z,18.80
2023-02-07T01:11:47.738Z,18.70
2023-02-07T01:12:50.427Z,18.80
2023-02-07T01:13:53.215Z,18.70
2023-02-07T01:14:59.381Z,18.70
2023-02-07T01:16:02.131Z,18.80
2023-02-07T01:17:04.478Z,18.70
2023-02-07T01:18:08.318Z,18.70
2023-02-07T01:19:11.811Z,18.80
2023-02-07T01:20:15.019Z,18.70
2023-02-07T01:21:19.902Z,18.70
2023-02-07T01:22:22.175Z,18.70
2023-02-07T01:23:25.804Z,18.70
2023-02-07T01:24:28.178Z,18.70
2023-02-07T01:25:30.605Z,18.70
2023-02-07T01:26:33.822Z,18.70
2023-02-07T01:27:36.481Z,18.70
2023-02-07T01:28:39.370Z,18.70
2023-02-07T01:29:41.727Z,18.80
2023-02-07T01:30:45.088Z,18.70
2023-02-07T01:31:47.728Z,18.70
2023-02-07T01:32:50.189Z,18.80
2023-02-07T01:33:57.338Z,18.90
2023-02-07T01:35:01.038Z,18.90
2023-02-07T01:36:11.528Z,18.90
2023-02-07T01:37:13.929Z,19.00
2023-02-07T01:38:16.352Z,19.00
2023-02-07T01:39:18.801Z,19.00
2023-02-07T01:40:21.339Z,19.00
2023-02-07T01:41:26.253Z,19.10
2023-02-07T01:42:29.284Z,19.10
2023-02-07T01:43:32.414Z,19.10
2023-02-07T01:44:37.465Z,19.10
2023-02-07T01:45:41.158Z,19.10
2023-02-07T01:46:43.583Z,19.10
2023-02-07T01:47:46.071Z,19.10
2023-02-07T01:48:48.840Z,19.20
2023-02-07T01:49:55.828Z,19.10
2023-02-07T01:51:00.730Z,19.10
2023-02-07T01:52:09.429Z,19.20
2023-02-07T01:53:14.261Z,19.20
2023-02-07T01:54:18.207Z,19.20
2023-02-07T01:55:25.841Z,19.20
2023-02-07T01:56:31.886Z,19.20
2023-02-07T01:57:36.318Z,19.00
2023-02-07T01:58:39.033Z,18.70
2023-02-07T01:59:44.096Z,18.40
2023-02-07T02:00:47.819Z,18.30
2023-02-07T02:01:50.951Z,18.40
2023-02-07T02:02:53.604Z,18.50
2023-02-07T02:03:57.081Z,18.60
2023-02-07T02:04:59.681Z,18.60
2023-02-07T02:06:02.451Z,18.80
2023-02-07T02:07:07.845Z,18.80
2023-02-07T02:08:10.207Z,18.90
2023-02-07T02:09:15.403Z,18.90
2023-02-07T02:10:21.595Z,19.00
2023-02-07T02:11:55.874Z,19.10
2023-02-07T02:13:07.434Z,19.20
2023-02-07T02:14:40.310Z,19.20
2023-02-07T02:15:56.350Z,19.30
2023-02-07T02:17:14.318Z,18.90
2023-02-07T02:18:38.061Z,18.70
2023-02-07T02:19:46.428Z,18.20
2023-02-07T02:21:22.852Z,18.20
2023-02-07T02:22:40.035Z,18.40
2023-02-07T02:24:18.573Z,18.60
2023-02-07T02:25:57.874Z,18.70
2023-02-07T02:27:28.853Z,18.90
2023-02-07T02:28:59.413Z,19.00
2023-02-07T02:30:39.195Z,19.00
2023-02-07T02:32:22.211Z,19.10
2023-02-07T02:34:00.090Z,19.20
2023-02-07T02:35:02.416Z,19.20
2023-02-07T02:36:38.141Z,19.20
2023-02-07T02:37:59.133Z,19.30
2023-02-07T02:39:23.691Z,19.30
2023-02-07T02:40:43.312Z,19.30
2023-02-07T02:42:16.302Z,19.30
2023-02-07T02:43:54.766Z,19.40
2023-02-07T02:45:13.805Z,19.40
2023-02-07T02:46:23.144Z,19.10
2023-02-07T02:47:29.459Z,18.50
2023-02-07T02:48:33.668Z,18.10
2023-02-07T02:49:37.443Z,18.10
2023-02-07T02:50:45.205Z,18.30
2023-02-07T02:51:52.629Z,18.40
2023-02-07T02:52:55.349Z,18.60
2023-02-07T02:54:01.132Z,18.70
2023-02-07T02:55:15.377Z,18.80
2023-02-07T02:56:43.842Z,18.90
2023-02-07T02:57:59.570Z,19.00
2023-02-07T02:59:33.413Z,19.10
2023-02-07T03:01:08.839Z,19.20
2023-02-07T03:02:21.533Z,18.90
2023-02-07T03:03:46.652Z,18.00
2023-02-07T03:05:13.708Z,17.80
2023-02-07T03:06:38.524Z,18.00
2023-02-07T03:08:10.153Z,18.30
2023-02-07T03:09:21.372Z,18.50
2023-02-07T03:10:47.889Z,18.80
2023-02-07T03:12:01.817Z,18.90
2023-02-07T03:13:12.700Z,19.00
2023-02-07T03:14:39.462Z,19.00
2023-02-07T03:16:03.368Z,19.10
2023-02-07T03:17:23.259Z,19.10
2023-02-07T03:18:47.939Z,19.20
2023-02-07T03:20:14.421Z,19.20
2023-02-07T03:21:43.458Z,19.30
2023-02-07T03:22:47.600Z,19.30
2023-02-07T03:23:52.370Z,19.30
2023-02-07T03:24:58.955Z,19.30
2023-02-07T03:26:05.805Z,19.40
2023-02-07T03:27:11.497Z,19.40
2023-02-07T03:28:16.457Z,19.40
2023-02-07T03:29:20.976Z,19.40
2023-02-07T03:30:26.213Z,19.40
2023-02-07T03:31:30.524Z,19.40
2023-02-07T03:32:37.391Z,19.40
2023-02-07T03:33:40.831Z,19.50
2023-02-07T03:35:04.618Z,19.50
2023-02-07T03:36:23.496Z,19.30
2023-02-07T03:37:31.519Z,18.70
2023-02-07T03:38:35.139Z,18.30
2023-02-07T03:39:37.634Z,17.90
2023-02-07T03:40:44.996Z,17.70
2023-02-07T03:41:56.451Z,17.80
2023-02-07T03:43:06.628Z,18.00
2023-02-07T03:44:10.892Z,18.20
2023-02-07T03:45:16.651Z,18.40
2023-02-07T03:46:19.407Z,18.60
2023-02-07T03:47:22.649Z,18.70
2023-02-07T03:48:25.067Z,18.80
2023-02-07T03:49:27.441Z,18.80
2023-02-07T03:50:30.221Z,18.90
2023-02-07T03:51:32.698Z,18.90
2023-02-07T03:52:35.075Z,19.00
2023-02-07T03:53:37.573Z,19.10
2023-02-07T03:54:39.813Z,19.10
2023-02-07T03:55:42.111Z,19.20
2023-02-07T03:56:44.915Z,19.20
2023-02-07T03:57:47.234Z,19.30
2023-02-07T03:58:49.562Z,19.30
2023-02-07T03:59:52.016Z,19.40
2023-02-07T04:00:54.299Z,19.40
2023-02-07T04:01:56.688Z,19.50
2023-02-07T04:02:59.362Z,19.50
2023-02-07T04:04:01.760Z,19.60
2023-02-07T04:05:04.177Z,19.60
2023-02-07T04:06:06.527Z,19.60
2023-02-07T04:07:09.805Z,19.70
2023-02-07T04:08:12.253Z,19.70
2023-02-07T04:09:14.554Z,19.70
2023-02-07T04:10:17.202Z,19.70
2023-02-07T04:11:19.519Z,19.80
2023-02-07T04:12:21.785Z,19.80
2023-02-07T04:13:24.051Z,19.80
2023-02-07T04:14:26.566Z,19.40
2023-02-07T04:15:29.311Z,19.30
2023-02-07T04:16:32.895Z,19.30
2023-02-07T04:17:35.375Z,19.30
2023-02-07T04:18:37.700Z,19.40
2023-02-07T04:19:40.243Z,19.50
2023-02-07T04:20:42.940Z,19.60
2023-02-07T04:21:45.273Z,19.70
2023-02-07T04:22:47.581Z,19.70
2023-02-07T04:23:50.079Z,19.70
2023-02-07T04:24:53.332Z,19.80
2023-02-07T04:25:56.191Z,19.70
2023-02-07T04:26:59.147Z,19.80
2023-02-07T04:28:01.441Z,19.80
2023-02-07T04:29:04.843Z,19.80
2023-02-07T04:30:07.769Z,19.80
2023-02-07T04:31:10.058Z,19.80
2023-02-07T04:32:12.909Z,19.30
2023-02-07T04:33:15.302Z,19.20
2023-02-07T04:34:17.629Z,19.30
2023-02-07T04:35:19.940Z,19.40
2023-02-07T04:36:22.748Z,19.50
2023-02-07T04:37:25.113Z,19.60
2023-02-07T04:38:28.531Z,19.60
2023-02-07T04:39:30.894Z,19.70
2023-02-07T04:40:33.233Z,19.80
2023-02-07T04:41:35.553Z,19.80
2023-02-07T04:42:37.809Z,19.70
2023-02-07T04:43:40.056Z,19.80
2023-02-07T04:44:42.378Z,19.80
2023-02-07T04:45:47.860Z,19.80
2023-02-07T04:46:50.209Z,19.80
2023-02-07T04:47:52.462Z,19.90
2023-02-07T04:48:55.030Z,19.90
2023-02-07T04:49:57.413Z,19.90
2023-02-07T04:50:59.784Z,19.90
2023-02-07T04:52:02.231Z,19.90
2023-02-07T04:53:04.724Z,19.90
2023-02-07T04:54:07.129Z,19.90
2023-02-07T04:55:09.941Z,19.90
2023-02-07T04:56:12.303Z,19.90
2023-02-07T04:57:15.315Z,19.90
2023-02-07T04:58:18.150Z,19.90
2023-02-07T04:59:20.468Z,19.90
2023-02-07T05:00:22.802Z,20.00
2023-02-07T05:01:25.374Z,19.90
2023-02-07T05:02:27.818Z,20.00
2023-02-07T05:03:30.133Z,19.90
2023-02-07T05:04:32.851Z,20.00
2023-02-07T05:05:39.420Z,19.90
2023-02-07T05:06:42.921Z,20.00
2023-02-07T05:07:45.602Z,20.00
2023-02-07T05:08:47.946Z,19.90
2023-02-07T05:09:50.445Z,20.00
2023-02-07T05:10:54.619Z,20.00
2023-02-07T05:11:56.986Z,20.00
2023-02-07T05:12:59.262Z,20.00
2023-02-07T05:14:01.596Z,20.00
2023-02-07T05:15:04.559Z,20.00
2023-02-07T05:16:07.118Z,20.10
2023-02-07T05:17:09.455Z,20.00
2023-02-07T05:18:11.781Z,20.00
2023-02-07T05:19:14.101Z,20.00
2023-02-07T05:20:16.579Z,20.10
2023-02-07T05:21:18.923Z,20.10
2023-02-07T05:22:21.273Z,20.10
2023-02-07T05:23:23.631Z,20.10
2023-02-07T05:24:25.980Z,20.10
2023-02-07T05:25:28.395Z,19.70
2023-02-07T05:26:30.809Z,19.00
2023-02-07T05:27:33.319Z,18.60
2023-02-07T05:28:35.614Z,18.70
2023-02-07T05:29:38.021Z,18.90
2023-02-07T05:30:40.433Z,19.10
2023-02-07T05:32:01.154Z,19.30
2023-02-07T05:33:09.362Z,19.40
2023-02-07T05:34:11.677Z,19.50
2023-02-07T05:35:14.056Z,19.60
2023-02-07T05:36:16.350Z,19.70
2023-02-07T05:37:18.861Z,19.70
2023-02-07T05:38:21.614Z,19.80
2023-02-07T05:39:24.055Z,19.80
2023-02-07T05:40:26.421Z,19.80
2023-02-07T05:41:28.742Z,19.90
2023-02-07T05:42:31.123Z,19.90
2023-02-07T05:43:33.427Z,19.90
2023-02-07T05:44:35.789Z,20.00
2023-02-07T05:45:38.479Z,20.00
2023-02-07T05:46:41.080Z,19.90
2023-02-07T05:47:43.324Z,20.00
2023-02-07T05:48:45.606Z,20.00
2023-02-07T05:49:47.952Z,19.90
2023-02-07T05:50:50.248Z,19.90
2023-02-07T05:51:52.641Z,20.00
2023-02-07T05:52:54.934Z,20.00
2023-02-07T05:53:57.218Z,20.00
2023-02-07T05:54:59.709Z,20.00
2023-02-07T05:56:02.233Z,20.00
2023-02-07T05:57:04.591Z,20.00
2023-02-07T05:58:07.170Z,20.00
2023-02-07T05:59:09.437Z,20.10
2023-02-07T06:00:14.493Z,20.10
2023-02-07T06:01:16.871Z,20.10
2023-02-07T06:02:19.213Z,20.10
2023-02-07T06:03:21.539Z,20.20
2023-02-07T06:04:23.786Z,20.10
2023-02-07T06:05:31.436Z,20.10
2023-02-07T06:06:34.227Z,20.10
2023-02-07T06:07:36.928Z,20.10
2023-02-07T06:08:39.541Z,20.10
2023-02-07T06:09:42.041Z,20.10
2023-02-07T06:10:44.552Z,20.20
2023-02-07T06:11:47.155Z,20.20
2023-02-07T06:12:49.582Z,20.20
2023-02-07T06:13:52.138Z,20.20
2023-02-07T06:14:54.648Z,20.20
2023-02-07T06:15:57.022Z,20.20
2023-02-07T06:16:59.445Z,20.20
2023-02-07T06:18:02.158Z,20.20
2023-02-07T06:19:04.593Z,20.20
2023-02-07T06:20:07.611Z,20.20
2023-02-07T06:21:10.171Z,20.20
2023-02-07T06:22:13.128Z,20.20
2023-02-07T06:23:15.798Z,20.20
2023-02-07T06:24:18.333Z,20.20
2023-02-07T06:25:21.481Z,20.20
2023-02-07T06:26:24.043Z,20.20
2023-02-07T06:27:26.324Z,20.20
2023-02-07T06:28:28.626Z,20.20
2023-02-07T06:29:30.936Z,20.20
2023-02-07T06:30:33.518Z,20.20
2023-02-07T06:31:35.891Z,20.20
2023-02-07T06:32:38.347Z,20.20
2023-02-07T06:33:40.688Z,20.20
2023-02-07T06:34:42.975Z,20.20
2023-02-07T06:35:48.238Z,20.20
2023-02-07T06:36:50.634Z,20.20
2023-02-07T06:37:55.061Z,20.20
2023-02-07T06:38:57.748Z,20.20
2023-02-07T06:40:00.196Z,20.20
2023-02-07T06:41:02.638Z,20.20
2023-02-07T06:42:05.968Z,20.20
2023-02-07T06:43:09.114Z,20.20
2023-02-07T06:44:11.602Z,20.20
2023-02-07T06:45:13.939Z,20.20
2023-02-07T06:46:16.316Z,20.20
2023-02-07T06:47:20.757Z,20.20
2023-02-07T06:48:23.225Z,20.20
2023-02-07T06:49:25.538Z,20.20
2023-02-07T06:50:27.791Z,20.20
2023-02-07T06:51:30.456Z,20.20
2023-02-07T06:52:32.953Z,20.20
2023-02-07T06:53:35.486Z,20.20
2023-02-07T06:54:38.208Z,20.20
2023-02-07T06:55:40.876Z,20.20
2023-02-07T06:56:43.818Z,20.20
2023-02-07T06:57:46.156Z,20.20
2023-02-07T06:58:48.503Z,20.30
2023-02-07T06:59:50.799Z,20.20
2023-02-07T07:00:53.122Z,20.20
2023-02-07T07:01:55.520Z,20.20
2023-02-07T07:02:57.803Z,20.20
2023-02-07T07:04:00.176Z,20.20
2023-02-07T07:05:02.840Z,20.20
2023-02-07T07:06:05.627Z,20.20
2023-02-07T07:07:07.933Z,20.20
2023-02-07T07:08:11.293Z,20.20
2023-02-07T07:09:13.682Z,20.20
2023-02-07T07:10:16.145Z,20.20
2023-02-07T07:11:18.951Z,20.20
2023-02-07T07:12:21.620Z,20.20
2023-02-07T07:13:24.158Z,20.20
2023-02-07T07:14:26.517Z,20.20
2023-02-07T07:15:29.016Z,20.20
2023-02-07T07:16:31.352Z,20.20
2023-02-07T07:17:33.697Z,20.20
2023-02-07T07:18:38.354Z,20.20
2023-02-07T07:19:40.622Z,20.20
2023-02-07T07:20:43.004Z,20.20
2023-02-07T07:21:45.404Z,20.20
2023-02-07T07:22:48.921Z,20.10
2023-02-07T07:23:51.205Z,20.10
2023-02-07T07:24:53.488Z,20.10
2023-02-07T07:25:55.776Z,20.10
2023-02-07T07:26:58.199Z,20.10
2023-02-07T07:28:00.581Z,20.20
2023-02-07T07:29:03.408Z,20.20
2023-02-07T07:30:08.146Z,20.20
2023-02-07T07:31:11.924Z,20.20
2023-02-07T07:32:25.160Z,20.20
2023-02-07T07:33:36.322Z,20.30
2023-02-07T07:34:39.092Z,20.20
2023-02-07T07:35:41.888Z,20.20
2023-02-07T07:36:44.391Z,20.20
2023-02-07T07:37:46.658Z,20.20
2023-02-07T07:38:50.580Z,20.10
2023-02-07T07:39:52.866Z,20.10
2023-02-07T07:40:55.450Z,20.10
2023-02-07T07:41:57.821Z,20.10
2023-02-07T07:43:27.221Z,20.10
2023-02-07T07:44:30.154Z,20.20
2023-02-07T07:45:32.596Z,20.20
2023-02-07T07:46:34.963Z,20.30
2023-02-07T07:47:37.222Z,20.30
2023-02-07T07:48:39.612Z,20.20
2023-02-07T07:49:42.000Z,20.20
2023-02-07T07:50:44.317Z,20.20
2023-02-07T07:51:46.810Z,20.20
2023-02-07T07:52:49.112Z,20.20
2023-02-07T07:53:51.452Z,20.30
2023-02-07T07:54:53.735Z,20.30
2023-02-07T07:55:57.115Z,20.30
2023-02-07T07:56:59.442Z,20.30
2023-02-07T07:58:01.767Z,20.30
2023-02-07T07:59:08.817Z,20.30
2023-02-07T08:00:14.890Z,20.30
2023-02-07T08:01:17.285Z,20.30
2023-02-07T08:02:19.631Z,20.30
2023-02-07T08:03:22.634Z,20.30
2023-02-07T08:04:24.964Z,20.30
2023-02-07T08:05:27.384Z,20.30
2023-02-07T08:06:31.212Z,20.30
2023-02-07T08:07:34.120Z,20.30
2023-02-07T08:08:36.723Z,20.30
2023-02-07T08:09:39.076Z,20.40
2023-02-07T08:10:41.998Z,20.40
2023-02-07T08:11:44.368Z,20.40
2023-02-07T08:12:46.732Z,20.40
2023-02-07T08:13:49.718Z,20.40
2023-02-07T08:14:52.171Z,20.40
2023-02-07T08:15:54.557Z,20.40
2023-02-07T08:16:57.098Z,20.40
2023-02-07T08:17:59.461Z,20.40
2023-02-07T08:19:01.849Z,20.40
2023-02-07T08:20:05.420Z,20.40
2023-02-07T08:21:07.750Z,20.40
2023-02-07T08:22:10.106Z,20.40
2023-02-07T08:23:12.442Z,20.40
2023-02-07T08:24:15.163Z,20.40
2023-02-07T08:25:17.716Z,20.30
2023-02-07T08:26:20.787Z,20.30
2023-02-07T08:27:23.107Z,20.30
2023-02-07T08:28:26.773Z,20.30
2023-02-07T08:29:29.105Z,20.30
2023-02-07T08:30:31.905Z,20.30
2023-02-07T08:31:34.534Z,20.20
2023-02-07T08:32:37.039Z,20.20
2023-02-07T08:33:39.564Z,20.30
2023-02-07T08:34:41.851Z,20.30
2023-02-07T08:35:44.842Z,20.40
2023-02-07T08:36:47.670Z,20.40
2023-02-07T08:37:50.894Z,20.40
2023-02-07T08:38:53.215Z,20.40
2023-02-07T08:39:55.757Z,20.40
2023-02-07T08:40:58.083Z,20.40
2023-02-07T08:42:00.419Z,20.40
2023-02-07T08:43:06.672Z,20.50
2023-02-07T08:44:08.972Z,20.50
2023-02-07T08:45:12.031Z,20.40
2023-02-07T08:46:14.653Z,20.40
2023-02-07T08:47:18.881Z,20.40
2023-02-07T08:48:21.384Z,20.30
2023-02-07T08:49:23.808Z,20.30
2023-02-07T08:50:26.133Z,20.30
2023-02-07T08:51:28.913Z,20.30
2023-02-07T08:52:31.269Z,20.30
2023-02-07T08:53:33.958Z,20.20
2023-02-07T08:54:36.722Z,20.20
2023-02-07T08:55:42.601Z,20.20
2023-02-07T08:56:45.103Z,20.20
2023-02-07T08:57:47.439Z,20.20
2023-02-07T08:58:49.811Z,20.20
2023-02-07T08:59:53.052Z,20.20
2023-02-07T09:00:56.308Z,20.20
2023-02-07T09:01:58.893Z,20.20
2023-02-07T09:03:03.841Z,20.20
2023-02-07T09:04:06.361Z,20.30
2023-02-07T09:05:09.050Z,20.30
2023-02-07T09:06:11.978Z,20.30
2023-02-07T09:07:15.142Z,20.30
2023-02-07T09:08:18.788Z,20.30
2023-02-07T09:09:21.184Z,20.30
2023-02-07T09:10:23.442Z,20.30
2023-02-07T09:11:25.894Z,20.30
2023-02-07T09:12:28.219Z,20.30
2023-02-07T09:13:30.504Z,20.30
2023-02-07T09:14:32.909Z,20.30
2023-02-07T09:15:35.234Z,20.30
2023-02-07T09:16:38.306Z,20.30
2023-02-07T09:17:40.917Z,20.20
2023-02-07T09:18:43.845Z,20.20
2023-02-07T09:19:46.444Z,20.30
2023-02-07T09:20:49.024Z,20.30
2023-02-07T09:21:51.428Z,20.30
2023-02-07T09:23:12.947Z,20.30
2023-02-07T09:24:15.289Z,20.30
2023-02-07T09:25:17.613Z,20.30
2023-02-07T09:26:23.412Z,20.20
2023-02-07T09:27:25.768Z,20.30
2023-02-07T09:28:28.862Z,20.30
2023-02-07T09:29:31.189Z,20.40
2023-02-07T09:30:33.611Z,20.40
2023-02-07T09:31:36.112Z,20.40
2023-02-07T09:32:38.438Z,20.50
2023-02-07T09:33:41.552Z,20.50
2023-02-07T09:34:43.974Z,20.50
2023-02-07T09:35:47.495Z,20.50
2023-02-07T09:36:50.275Z,20.50
2023-02-07T09:37:55.099Z,20.50
2023-02-07T09:38:59.711Z,20.50
2023-02-07T09:40:02.975Z,20.50
2023-02-07T09:41:19.932Z,20.50
2023-02-07T09:42:43.240Z,20.50
2023-02-07T09:43:59.359Z,20.50
2023-02-07T09:45:10.061Z,20.50
2023-02-07T09:46:22.358Z,20.50
2023-02-07T09:47:27.005Z,20.50
2023-02-07T09:48:45.046Z,20.50
2023-02-07T09:50:13.628Z,20.50
2023-02-07T09:51:19.824Z,20.50
2023-02-07T09:52:42.048Z,20.50
2023-02-07T09:53:50.961Z,20.50
2023-02-07T09:54:55.955Z,20.50
2023-02-07T09:56:01.237Z,20.60
2023-02-07T09:57:10.228Z,20.60
2023-02-07T09:58:35.068Z,20.60
2023-02-07T09:59:55.933Z,20.60
2023-02-07T10:01:09.301Z,20.60
2023-02-07T10:02:38.569Z,20.50
2023-02-07T10:04:11.527Z,20.50
2023-02-07T10:05:21.500Z,20.30
2023-02-07T10:06:27.365Z,20.40
2023-02-07T10:07:30.803Z,20.40
2023-02-07T10:08:40.843Z,20.40
2023-02-07T10:09:46.264Z,20.40
2023-02-07T10:11:15.116Z,20.50
2023-02-07T10:12:34.883Z,20.50
2023-02-07T10:13:45.721Z,20.50
2023-02-07T10:15:20.781Z,20.60
2023-02-07T10:16:25.926Z,20.60
2023-02-07T10:17:46.948Z,20.60
2023-02-07T10:19:19.280Z,20.60
2023-02-07T10:20:50.841Z,20.70
2023-02-07T10:22:32.560Z,20.70
2023-02-07T10:24:01.043Z,20.70
2023-02-07T10:25:33.765Z,20.70
2023-02-07T10:26:42.276Z,20.80
2023-02-07T10:27:57.432Z,20.80
2023-02-07T10:29:55.052Z,20.80
2023-02-07T10:31:03.441Z,20.80
2023-02-07T10:32:23.496Z,20.80
2023-02-07T10:33:32.558Z,20.80
2023-02-07T10:34:40.022Z,20.90
2023-02-07T10:35:45.071Z,20.90
2023-02-07T10:36:50.476Z,20.90
2023-02-07T10:37:56.565Z,20.90
2023-02-07T10:39:09.442Z,20.90
2023-02-07T10:40:26.129Z,20.90
2023-02-07T10:41:37.868Z,20.90
2023-02-07T10:42:43.201Z,20.90
2023-02-07T10:43:48.120Z,20.90
2023-02-07T10:44:51.108Z,20.90
2023-02-07T10:46:04.629Z,20.90
2023-02-07T10:47:12.370Z,20.90
2023-02-07T10:48:15.404Z,20.90
2023-02-07T10:49:25.300Z,20.90
2023-02-07T10:50:41.643Z,20.50
2023-02-07T10:51:45.660Z,20.40
2023-02-07T10:52:53.991Z,20.30
2023-02-07T10:54:16.723Z,20.20
2023-02-07T10:55:34.305Z,20.10
2023-02-07T10:56:57.859Z,20.20
2023-02-07T10:58:17.809Z,20.30
2023-02-07T10:59:47.262Z,20.40
2023-02-07T11:00:52.163Z,20.50
2023-02-07T11:01:55.053Z,20.60
2023-02-07T11:03:12.837Z,20.60
2023-02-07T11:04:36.642Z,20.70
2023-02-07T11:05:54.039Z,20.70
2023-02-07T11:07:04.717Z,20.70
2023-02-07T11:08:16.078Z,20.70
2023-02-07T11:09:22.701Z,20.80
2023-02-07T11:10:33.431Z,20.80
2023-02-07T11:11:38.154Z,20.80
2023-02-07T11:12:49.317Z,20.80
2023-02-07T11:13:55.238Z,20.80
2023-02-07T11:15:01.969Z,20.80
2023-02-07T11:16:09.899Z,20.80
2023-02-07T11:17:21.305Z,20.90
2023-02-07T11:18:26.189Z,20.90
2023-02-07T11:19:30.596Z,20.80
2023-02-07T11:20:41.128Z,20.90
2023-02-07T11:21:45.081Z,20.90
2023-02-07T11:22:54.822Z,20.90
2023-02-07T11:24:31.196Z,20.80
2023-02-07T11:25:38.786Z,20.80
2023-02-07T11:26:53.724Z,20.80
2023-02-07T11:27:56.635Z,20.60
2023-02-07T11:29:15.404Z,20.60
2023-02-07T11:30:21.944Z,20.60
2023-02-07T11:31:30.142Z,20.60
2023-02-07T11:32:32.717Z,20.60
2023-02-07T11:33:36.649Z,20.60
2023-02-07T11:34:49.280Z,20.60
2023-02-07T11:36:17.002Z,20.50
2023-02-07T11:37:29.934Z,20.60
2023-02-07T11:38:37.303Z,20.50
2023-02-07T11:39:40.993Z,20.50
2023-02-07T11:40:47.070Z,20.50
2023-02-07T11:42:01.658Z,20.50
2023-02-07T11:43:12.113Z,20.50
2023-02-07T11:44:18.225Z,20.50
2023-02-07T11:45:23.122Z,20.50
2023-02-07T11:46:36.008Z,20.50
2023-02-07T11:47:42.189Z,20.60
2023-02-07T11:48:49.328Z,20.60
2023-02-07T11:49:58.022Z,20.60
2023-02-07T11:51:03.390Z,20.60
2023-02-07T11:52:06.950Z,20.60
2023-02-07T11:53:31.859Z,20.60
2023-02-07T11:54:35.176Z,20.60
2023-02-07T11:55:43.018Z,20.60
2023-02-07T11:56:55.320Z,20.60
2023-02-07T11:58:08.398Z,20.60
2023-02-07T11:59:21.031Z,20.60
2023-02-07T12:00:30.109Z,20.50
2023-02-07T12:01:34.287Z,20.50
2023-02-07T12:02:36.678Z,20.50
2023-02-07T12:03:46.995Z,20.50
2023-02-07T12:04:49.923Z,20.50
2023-02-07T12:05:58.687Z,20.40
2023-02-07T12:07:25.384Z,20.50
2023-02-07T12:08:32.479Z,20.50
2023-02-07T12:09:52.617Z,20.40
2023-02-07T12:10:59.020Z,20.50
2023-02-07T12:12:05.307Z,20.40
2023-02-07T12:13:14.435Z,20.40
2023-02-07T12:14:41.881Z,20.40
2023-02-07T12:15:56.433Z,20.40
2023-02-07T12:17:00.440Z,20.40
2023-02-07T12:18:26.238Z,20.40
2023-02-07T12:19:33.358Z,20.40
2023-02-07T12:20:38.031Z,20.40
2023-02-07T12:22:14.628Z,20.50
2023-02-07T12:23:43.041Z,20.50
2023-02-07T12:24:58.379Z,20.50
2023-02-07T12:26:21.443Z,20.40
2023-02-07T12:27:39.603Z,20.50
2023-02-07T12:29:13.270Z,20.40
2023-02-07T12:30:22.360Z,20.40
2023-02-07T12:31:39.908Z,20.50
2023-02-07T12:33:04.026Z,20.60
2023-02-07T12:34:17.354Z,20.60
2023-02-07T12:35:55.606Z,20.60
2023-02-07T12:37:06.978Z,20.60
2023-02-07T12:38:26.604Z,20.60
2023-02-07T12:39:37.067Z,20.60
2023-02-07T12:40:51.130Z,20.60
2023-02-07T12:42:11.408Z,20.60
2023-02-07T12:43:29.518Z,20.70
2023-02-07T12:44:41.169Z,20.60
2023-02-07T12:46:01.549Z,20.60
2023-02-07T12:47:30.650Z,20.50
2023-02-07T12:48:38.486Z,20.50
2023-02-07T12:49:59.303Z,20.50
2023-02-07T12:51:13.121Z,20.50
2023-02-07T12:52:46.165Z,20.50
2023-02-07T12:53:55.278Z,20.50
2023-02-07T12:55:09.653Z,20.50
2023-02-07T12:56:24.869Z,20.50
2023-02-07T12:57:39.044Z,20.50
2023-02-07T12:59:00.646Z,20.50
2023-02-07T13:00:06.071Z,20.50
2023-02-07T13:01:36.938Z,20.50
2023-02-07T13:03:10.894Z,20.50
2023-02-07T13:05:01.070Z,20.50
2023-02-07T13:06:14.657Z,20.50
2023-02-07T13:07:27.162Z,20.50
2023-02-07T13:08:59.399Z,20.50
2023-02-07T13:10:28.738Z,20.50
2023-02-07T13:11:52.358Z,20.50
2023-02-07T13:13:29.952Z,20.50
2023-02-07T13:15:03.502Z,20.50
2023-02-07T13:16:16.675Z,20.50
2023-02-07T13:17:55.898Z,20.50
2023-02-07T13:19:13.463Z,20.40
2023-02-07T13:20:29.916Z,20.50
2023-02-07T13:21:43.929Z,20.50
2023-02-07T13:23:01.380Z,20.50
2023-02-07T13:24:06.635Z,20.50
2023-02-07T13:25:27.698Z,20.50
2023-02-07T13:26:33.723Z,20.50
2023-02-07T13:27:36.936Z,20.40
2023-02-07T13:28:47.353Z,20.40
2023-02-07T13:29:51.038Z,20.40
2023-02-07T13:30:54.517Z,20.30
2023-02-07T13:32:01.598Z,20.30
2023-02-07T13:33:18.148Z,20.30
2023-02-07T13:34:24.030Z,20.30
2023-02-07T13:35:30.449Z,20.30
2023-02-07T13:36:41.360Z,20.30
2023-02-07T13:38:02.220Z,20.40
2023-02-07T13:39:27.662Z,20.20
2023-02-07T13:40:49.102Z,19.60
2023-02-07T13:41:53.900Z,18.90
2023-02-07T13:43:20.551Z,18.70
2023-02-07T13:44:45.677Z,18.50
2023-02-07T13:46:11.123Z,18.30
2023-02-07T13:47:54.892Z,17.80
2023-02-07T13:49:16.760Z,17.50
2023-02-07T13:50:31.790Z,17.20
2023-02-07T13:52:19.302Z,17.10
2023-02-07T13:54:09.890Z,16.70
2023-02-07T13:55:32.081Z,16.80
2023-02-07T13:56:54.724Z,16.70
2023-02-07T13:58:15.877Z,16.80
2023-02-07T13:59:38.692Z,17.40
2023-02-07T14:01:08.975Z,17.80
2023-02-07T14:02:21.737Z,18.10
2023-02-07T14:03:29.703Z,18.40
2023-02-07T14:04:57.361Z,18.50
2023-02-07T14:06:16.685Z,18.70
2023-02-07T14:07:29.781Z,18.80
2023-02-07T14:08:32.233Z,18.90
2023-02-07T14:09:46.845Z,19.00
2023-02-07T14:10:55.535Z,19.10
2023-02-07T14:12:06.557Z,19.20
2023-02-07T14:13:26.782Z,19.30
2023-02-07T14:14:31.327Z,19.40
2023-02-07T14:15:41.438Z,19.40
2023-02-07T14:16:53.069Z,19.40
2023-02-07T14:18:03.878Z,19.50
2023-02-07T14:19:12.754Z,19.50
2023-02-07T14:20:36.752Z,19.60
2023-02-07T14:21:41.559Z,19.60
2023-02-07T14:22:43.884Z,19.70
2023-02-07T14:24:09.849Z,19.70
2023-02-07T14:25:35.245Z,19.70
2023-02-07T14:26:40.286Z,19.80
2023-02-07T14:28:04.193Z,19.80
2023-02-07T14:29:50.872Z,19.80
2023-02-07T14:30:53.616Z,19.80
2023-02-07T14:32:21.863Z,19.80
2023-02-07T14:33:37.897Z,19.90
2023-02-07T14:35:06.664Z,19.90
2023-02-07T14:36:15.952Z,19.90
2023-02-07T14:37:43.457Z,19.90
2023-02-07T14:39:27.864Z,20.00
2023-02-07T14:41:09.640Z,20.00
2023-02-07T14:42:19.658Z,20.00